createdAt,value
2018-12-10T00:02:07.314Z,15.87
2018-12-10T00:04:35.461Z,14.80
2018-12-10T00:07:03.017Z,19.17
2018-12-10T00:09:30.541Z,20.47
2018-12-10T00:11:58.095Z,18.50
2018-12-10T00:14:25.602Z,14.13
2018-12-10T00:16:53.146Z,17.70
2018-12-10T00:19:20.821Z,16.60
2018-12-10T00:21:48.320Z,17.40
2018-12-10T00:24:16.177Z,16.60
2018-12-10T00:26:43.878Z,15.90
2018-12-10T00:29:12.289Z,12.23
2018-12-10T00:31:39.794Z,11.93
2018-12-10T00:34:07.309Z,15.97
2018-12-10T00:36:35.074Z,12.10
2018-12-10T00:39:02.636Z,14.77
2018-12-10T00:41:30.168Z,12.83
2018-12-10T00:43:58.451Z,12.63
2018-12-10T00:46:26.006Z,10.10
2018-12-10T00:48:53.560Z,13.87
2018-12-10T00:51:21.040Z,9.80
2018-12-10T00:53:48.548Z,14.33
2018-12-10T00:56:16.038Z,13.53
2018-12-10T00:58:43.526Z,14.87
2018-12-10T01:01:11.099Z,13.27
2018-12-10T01:03:38.627Z,17.23
2018-12-10T01:06:06.301Z,15.23
2018-12-10T01:08:33.781Z,12.73
2018-12-10T01:11:01.861Z,17.87
2018-12-10T01:13:29.379Z,12.80
2018-12-10T01:15:56.885Z,15.63
2018-12-10T01:18:24.408Z,16.63
2018-12-10T01:20:51.917Z,16.17
2018-12-10T01:23:19.535Z,15.67
2018-12-10T01:25:47.039Z,18.97
2018-12-10T01:28:14.645Z,13.20
2018-12-10T01:30:42.155Z,19.80
2018-12-10T01:33:09.653Z,17.60
2018-12-10T01:35:37.161Z,15.63
2018-12-10T01:38:04.657Z,15.70
2018-12-10T01:40:32.223Z,14.73
2018-12-10T01:42:59.715Z,16.77
2018-12-10T01:45:27.243Z,13.47
2018-12-10T01:47:54.992Z,12.20
2018-12-10T01:50:22.542Z,14.93
2018-12-10T01:52:50.090Z,17.57
2018-12-10T01:55:17.611Z,16.97
2018-12-10T01:57:45.165Z,15.30
2018-12-10T02:00:12.709Z,15.53
2018-12-10T02:02:40.376Z,15.43
2018-12-10T02:05:07.894Z,17.03
2018-12-10T02:07:35.390Z,17.47
2018-12-10T02:10:03.341Z,14.43
2018-12-10T02:12:30.846Z,9.17
2018-12-10T02:14:58.329Z,14.30
2018-12-10T02:17:25.822Z,8.57
2018-12-10T02:19:53.363Z,10.27
2018-12-10T02:22:20.959Z,8.87
2018-12-10T02:24:48.532Z,8.87
2018-12-10T02:27:16.700Z,5.97
2018-12-10T02:29:44.207Z,9.73
2018-12-10T02:32:11.770Z,9.60
2018-12-10T02:34:39.345Z,10.40
2018-12-10T02:37:06.904Z,11.60
2018-12-10T02:39:34.473Z,11.03
2018-12-10T02:42:02.049Z,10.40
2018-12-10T02:44:29.602Z,7.90
2018-12-10T02:46:57.093Z,13.27
2018-12-10T02:49:24.621Z,11.20
2018-12-10T02:51:52.163Z,9.03
2018-12-10T02:54:19.702Z,10.78
2018-12-10T02:56:47.244Z,6.30
2018-12-10T02:59:14.776Z,11.70
2018-12-10T03:01:42.934Z,12.13
2018-12-10T03:04:10.476Z,9.73
2018-12-10T03:06:38.106Z,10.57
2018-12-10T03:09:06.102Z,9.80
2018-12-10T03:11:33.649Z,11.40
2018-12-10T03:14:01.262Z,11.17
2018-12-10T03:16:28.816Z,11.03
2018-12-10T03:18:56.402Z,7.00
2018-12-10T03:21:23.970Z,10.80
2018-12-10T03:23:51.549Z,9.67
2018-12-10T03:26:19.041Z,9.80
2018-12-10T03:28:46.589Z,9.23
2018-12-10T03:31:15.061Z,11.00
2018-12-10T03:33:42.651Z,10.40
2018-12-10T03:36:10.166Z,10.03
2018-12-10T03:38:37.759Z,10.17
2018-12-10T03:41:05.361Z,8.27
2018-12-10T03:43:32.865Z,11.47
2018-12-10T03:46:00.555Z,12.70
2018-12-10T03:48:28.079Z,12.90
2018-12-10T03:50:55.584Z,12.60
2018-12-10T03:53:23.110Z,12.93
2018-12-10T03:55:51.154Z,11.57
2018-12-10T03:58:18.667Z,8.50
2018-12-10T04:00:46.190Z,10.27
2018-12-10T04:03:13.778Z,11.53
2018-12-10T04:05:41.365Z,16.43
2018-12-10T04:08:08.849Z,18.07
2018-12-10T04:10:36.492Z,10.87
2018-12-10T04:13:04.041Z,13.13
2018-12-10T04:15:31.594Z,13.90
2018-12-10T04:17:59.110Z,18.17
2018-12-10T04:20:26.749Z,17.97
2018-12-10T04:22:54.322Z,19.30
2018-12-10T04:25:21.817Z,17.13
2018-12-10T04:27:49.312Z,15.38
2018-12-10T04:30:16.878Z,17.60
2018-12-10T04:32:44.551Z,20.33
2018-12-10T04:35:12.170Z,20.93
2018-12-10T04:37:39.694Z,14.87
2018-12-10T04:40:07.266Z,15.47
2018-12-10T04:42:34.854Z,23.70
2018-12-10T04:45:02.424Z,15.90
2018-12-10T04:47:30.002Z,18.23
2018-12-10T04:49:57.531Z,17.60
2018-12-10T04:52:25.080Z,21.10
2018-12-10T04:54:52.619Z,20.67
2018-12-10T04:57:20.150Z,17.07
2018-12-10T04:59:52.801Z,13.30
2018-12-10T05:02:17.693Z,18.80
2018-12-10T05:04:45.254Z,19.00
2018-12-10T05:07:12.818Z,13.90
2018-12-10T05:09:40.328Z,18.77
2018-12-10T05:12:07.896Z,16.87
2018-12-10T05:14:35.448Z,12.40
2018-12-10T05:17:02.997Z,10.97
2018-12-10T05:19:30.501Z,14.57
2018-12-10T05:21:58.046Z,18.80
2018-12-10T05:24:25.542Z,13.33
2018-12-10T05:26:53.189Z,14.93
2018-12-10T05:29:20.774Z,17.23
2018-12-10T05:31:48.316Z,17.13
2018-12-10T05:34:16.148Z,14.33
2018-12-10T05:36:43.667Z,16.40
2018-12-10T05:39:11.252Z,16.87
2018-12-10T05:41:39.433Z,15.10
2018-12-10T05:44:07.065Z,16.70
2018-12-10T05:46:34.625Z,12.82
2018-12-10T05:49:02.713Z,15.87
2018-12-10T05:51:30.210Z,13.23
2018-12-10T05:53:57.741Z,19.00
2018-12-10T05:56:25.324Z,11.63
2018-12-10T05:58:52.854Z,12.20
2018-12-10T06:01:20.439Z,14.17
2018-12-10T06:03:47.942Z,13.87
2018-12-10T06:06:15.433Z,13.33
2018-12-10T06:08:42.934Z,11.40
2018-12-10T06:11:10.459Z,12.20
2018-12-10T06:13:37.983Z,10.37
2018-12-10T06:16:05.497Z,13.13
2018-12-10T06:18:33.047Z,10.23
2018-12-10T06:21:00.571Z,12.73
2018-12-10T06:23:28.079Z,12.53
2018-12-10T06:25:55.659Z,14.73
2018-12-10T06:28:23.143Z,13.67
2018-12-10T06:30:50.634Z,11.87
2018-12-10T06:33:18.176Z,19.13
2018-12-10T06:35:45.693Z,13.33
2018-12-10T06:38:13.222Z,15.97
2018-12-10T06:40:40.784Z,13.13
2018-12-10T06:43:08.804Z,15.00
2018-12-10T06:45:36.520Z,16.93
2018-12-10T06:48:04.099Z,13.13
2018-12-10T06:50:31.730Z,18.17
2018-12-10T06:52:59.247Z,18.90
2018-12-10T06:55:26.784Z,13.53
2018-12-10T06:57:55.045Z,21.13
2018-12-10T07:00:22.586Z,16.90
2018-12-10T07:02:50.106Z,17.30
2018-12-10T07:05:17.686Z,17.43
2018-12-10T07:07:45.202Z,14.87
2018-12-10T07:10:13.257Z,16.30
2018-12-10T07:12:41.130Z,19.30
2018-12-10T07:15:09.022Z,21.33
2018-12-10T07:17:36.592Z,13.90
2018-12-10T07:20:05.461Z,18.83
2018-12-10T07:22:32.964Z,19.20
2018-12-10T07:25:00.510Z,11.37
2018-12-10T07:27:28.140Z,11.93
2018-12-10T07:29:55.760Z,17.40
2018-12-10T07:32:23.273Z,20.00
2018-12-10T07:34:50.872Z,10.83
2018-12-10T07:37:18.386Z,9.43
2018-12-10T07:39:45.936Z,11.97
2018-12-10T07:42:13.480Z,11.50
2018-12-10T07:44:41.632Z,11.93
2018-12-10T07:47:09.136Z,22.90
2018-12-10T07:49:36.650Z,16.13
2018-12-10T07:52:04.294Z,16.27
2018-12-10T07:54:32.290Z,15.32
2018-12-10T07:56:59.782Z,19.10
2018-12-10T07:59:27.268Z,19.93
2018-12-10T08:01:55.202Z,12.67
2018-12-10T08:04:22.715Z,15.70
2018-12-10T08:06:50.345Z,13.50
2018-12-10T08:09:17.870Z,14.77
2018-12-10T08:11:45.445Z,17.17
2018-12-10T08:14:13.120Z,17.17
2018-12-10T08:16:40.683Z,11.90
2018-12-10T08:19:08.208Z,17.30
2018-12-10T08:21:35.716Z,10.83
2018-12-10T08:24:03.228Z,15.67
2018-12-10T08:26:30.747Z,12.60
2018-12-10T08:29:03.792Z,12.67
2018-12-10T08:31:28.038Z,7.85
2018-12-10T08:33:55.718Z,12.50
2018-12-10T08:36:23.675Z,7.50
2018-12-10T08:38:51.175Z,8.93
2018-12-10T08:41:18.901Z,6.47
2018-12-10T08:43:46.509Z,10.63
2018-12-10T08:46:14.039Z,12.00
2018-12-10T08:48:41.548Z,9.47
2018-12-10T08:51:09.204Z,9.60
2018-12-10T08:53:37.115Z,11.23
2018-12-10T08:56:04.629Z,8.17
2018-12-10T08:58:32.163Z,13.37
2018-12-10T09:00:59.681Z,8.97
2018-12-10T09:03:27.366Z,11.07
2018-12-10T09:05:54.885Z,12.80
2018-12-10T09:08:22.400Z,13.03
2018-12-10T09:10:49.985Z,14.43
2018-12-10T09:13:17.510Z,14.10
2018-12-10T09:15:45.041Z,13.97
2018-12-10T09:18:12.578Z,13.33
2018-12-10T09:20:40.158Z,10.07
2018-12-10T09:23:07.641Z,14.67
2018-12-10T09:25:35.734Z,12.67
2018-12-10T09:28:03.293Z,15.17
2018-12-10T09:30:30.813Z,15.70
2018-12-10T09:32:58.397Z,10.07
2018-12-10T09:35:25.984Z,13.30
2018-12-10T09:37:53.499Z,9.03
2018-12-10T09:40:21.175Z,14.17
2018-12-10T09:42:48.677Z,13.93
2018-12-10T09:45:16.309Z,12.77
2018-12-10T09:47:43.832Z,17.50
2018-12-10T09:50:12.179Z,11.20
2018-12-10T09:52:39.707Z,11.03
2018-12-10T09:55:07.446Z,12.03
2018-12-10T09:57:34.976Z,11.50
2018-12-10T10:00:02.559Z,11.37
2018-12-10T10:02:30.081Z,12.87
2018-12-10T10:04:57.727Z,13.27
2018-12-10T10:07:28.573Z,18.90
2018-12-10T10:09:54.887Z,12.47
2018-12-10T10:12:23.736Z,14.80
2018-12-10T10:14:51.490Z,13.57
2018-12-10T10:17:19.074Z,11.37
2018-12-10T10:19:46.623Z,13.43
2018-12-10T10:22:14.168Z,12.17
2018-12-10T10:24:41.683Z,14.10
2018-12-10T10:27:09.247Z,8.23
2018-12-10T10:29:36.740Z,9.10
2018-12-10T10:32:04.271Z,9.07
2018-12-10T10:34:31.807Z,10.00
2018-12-10T10:36:59.766Z,13.17
2018-12-10T10:39:27.305Z,14.10
2018-12-10T10:41:54.831Z,10.53
2018-12-10T10:44:22.388Z,14.87
2018-12-10T10:46:50.003Z,13.97
2018-12-10T10:49:17.509Z,12.60
2018-12-10T10:51:45.022Z,19.93
2018-12-10T10:54:12.547Z,10.00
2018-12-10T10:56:40.263Z,15.30
2018-12-10T10:59:07.795Z,13.27
2018-12-10T11:01:41.059Z,11.47
2018-12-10T11:04:10.503Z,12.67
2018-12-10T11:06:38.254Z,13.50
2018-12-10T11:09:06.306Z,15.83
2018-12-10T11:11:34.814Z,13.27
2018-12-10T11:14:02.504Z,10.23
2018-12-10T11:16:30.077Z,8.20
2018-12-10T11:18:57.635Z,4.23
2018-12-10T11:21:25.183Z,6.07
2018-12-10T11:23:52.744Z,8.47
2018-12-10T11:26:20.265Z,7.97
2018-12-10T11:28:48.429Z,8.60
2018-12-10T11:31:17.306Z,8.73
2018-12-10T11:33:45.081Z,10.33
2018-12-10T11:36:12.594Z,8.60
2018-12-10T11:38:40.244Z,7.00
2018-12-10T11:41:07.810Z,13.87
2018-12-10T11:43:36.068Z,12.23
2018-12-10T11:46:03.635Z,8.93
2018-12-10T11:48:31.142Z,8.40
2018-12-10T11:50:58.695Z,7.43
2018-12-10T11:53:26.244Z,7.57
2018-12-10T11:55:53.848Z,9.17
2018-12-10T11:58:21.338Z,9.47
2018-12-10T12:00:48.860Z,8.18
2018-12-10T12:03:16.357Z,9.40
2018-12-10T12:05:43.982Z,8.60
2018-12-10T12:08:11.492Z,8.13
2018-12-10T12:10:39.015Z,8.13
2018-12-10T12:13:08.085Z,9.97
2018-12-10T12:15:35.833Z,10.13
2018-12-10T12:18:03.584Z,10.17
2018-12-10T12:20:31.270Z,6.63
2018-12-10T12:22:58.821Z,5.57
2018-12-10T12:25:26.386Z,6.90
2018-12-10T12:27:53.971Z,8.87
2018-12-10T12:30:21.555Z,5.70
2018-12-10T12:32:49.297Z,8.03
2018-12-10T12:35:16.883Z,8.50
2018-12-10T12:37:44.384Z,10.27
2018-12-10T12:40:11.900Z,9.43
2018-12-10T12:42:39.525Z,9.17
2018-12-10T12:45:07.135Z,8.90
2018-12-10T12:47:34.868Z,6.83
2018-12-10T12:50:02.651Z,4.40
2018-12-10T12:52:30.209Z,4.70
2018-12-10T12:54:57.755Z,7.27
2018-12-10T12:57:25.256Z,6.57
2018-12-10T12:59:52.776Z,7.20
2018-12-10T13:02:20.911Z,10.50
2018-12-10T13:04:48.398Z,9.77
2018-12-10T13:07:15.904Z,6.73
2018-12-10T13:09:43.454Z,6.67
2018-12-10T13:12:11.101Z,6.80
2018-12-10T13:14:38.609Z,8.60
2018-12-10T13:17:06.664Z,12.03
2018-12-10T13:19:34.243Z,9.80
2018-12-10T13:22:01.748Z,10.57
2018-12-10T13:24:29.243Z,11.03
2018-12-10T13:26:56.881Z,6.83
2018-12-10T13:29:31.187Z,9.40
2018-12-10T13:31:54.382Z,9.03
2018-12-10T13:34:21.923Z,9.78
2018-12-10T13:36:49.505Z,16.23
2018-12-10T13:39:17.998Z,8.90
2018-12-10T13:41:45.496Z,9.57
2018-12-10T13:44:12.995Z,9.87
2018-12-10T13:46:41.132Z,5.73
2018-12-10T13:49:08.679Z,10.63
2018-12-10T13:51:36.337Z,10.60
2018-12-10T13:54:04.042Z,12.17
2018-12-10T13:56:31.687Z,6.07
2018-12-10T13:58:59.221Z,11.40
2018-12-10T14:01:26.714Z,5.07
2018-12-10T14:03:54.203Z,8.97
2018-12-10T14:06:21.758Z,6.27
2018-12-10T14:08:49.301Z,9.70
2018-12-10T14:11:16.817Z,7.07
2018-12-10T14:13:44.371Z,6.73
2018-12-10T14:16:12.566Z,9.10
2018-12-10T14:18:40.234Z,10.17
2018-12-10T14:21:07.811Z,6.87
2018-12-10T14:23:35.312Z,7.53
2018-12-10T14:26:02.931Z,5.30
2018-12-10T14:28:30.454Z,7.43
2018-12-10T14:30:58.782Z,6.80
2018-12-10T14:33:26.461Z,5.70
2018-12-10T14:35:53.957Z,6.60
2018-12-10T14:38:21.543Z,7.93
2018-12-10T14:40:49.115Z,9.53
2018-12-10T14:43:16.745Z,6.47
2018-12-10T14:45:44.284Z,7.27
2018-12-10T14:48:11.967Z,5.43
2018-12-10T14:50:39.638Z,7.17
2018-12-10T14:53:07.163Z,6.83
2018-12-10T14:55:34.688Z,6.37
2018-12-10T14:58:02.200Z,6.23
2018-12-10T15:00:29.749Z,10.80
2018-12-10T15:02:57.898Z,6.93
2018-12-10T15:05:25.471Z,9.90
2018-12-10T15:07:53.033Z,6.43
2018-12-10T15:10:23.304Z,12.90
2018-12-10T15:12:50.160Z,14.07
2018-12-10T15:15:18.310Z,15.90
2018-12-10T15:17:45.833Z,16.53
2018-12-10T15:20:13.725Z,11.87
2018-12-10T15:22:41.426Z,14.47
2018-12-10T15:25:08.998Z,17.50
2018-12-10T15:27:36.495Z,22.77
2018-12-10T15:30:05.665Z,19.63
2018-12-10T15:32:33.264Z,17.90
2018-12-10T15:35:00.799Z,21.13
2018-12-10T15:37:28.387Z,13.97
2018-12-10T15:39:55.896Z,16.00
2018-12-10T15:42:23.420Z,18.20
2018-12-10T15:44:51.002Z,17.57
2018-12-10T15:47:18.573Z,11.10
2018-12-10T15:49:46.364Z,14.80
2018-12-10T15:52:13.937Z,16.57
2018-12-10T15:54:41.480Z,11.80
2018-12-10T15:57:09.056Z,17.07
2018-12-10T15:59:36.570Z,12.73
2018-12-10T16:02:04.200Z,8.83
2018-12-10T16:04:33.360Z,14.40
2018-12-10T16:07:00.910Z,15.10
2018-12-10T16:09:28.548Z,14.50
2018-12-10T16:11:56.292Z,16.83
2018-12-10T16:14:24.530Z,14.27
2018-12-10T16:16:52.104Z,23.30
2018-12-10T16:19:19.809Z,20.23
2018-12-10T16:21:47.898Z,22.90
2018-12-10T16:24:15.497Z,27.13
2018-12-10T16:26:43.090Z,30.20
2018-12-10T16:29:10.616Z,23.40
2018-12-10T16:31:38.121Z,18.57
2018-12-10T16:34:05.765Z,21.17
2018-12-10T16:36:33.323Z,25.93
2018-12-10T16:39:00.853Z,21.67
2018-12-10T16:41:28.430Z,17.17
2018-12-10T16:43:56.052Z,21.07
2018-12-10T16:46:23.617Z,11.80
2018-12-10T16:48:51.157Z,14.00
2018-12-10T16:51:18.865Z,14.73
2018-12-10T16:53:46.406Z,14.03
2018-12-10T16:56:13.911Z,14.80
2018-12-10T16:58:41.520Z,10.63
2018-12-10T17:01:09.035Z,13.57
2018-12-10T17:03:36.623Z,13.43
2018-12-10T17:06:04.243Z,10.13
2018-12-10T17:08:31.855Z,14.17
2018-12-10T17:10:59.390Z,10.67
2018-12-10T17:13:26.917Z,11.60
2018-12-10T17:15:54.480Z,21.95
2018-12-10T17:18:22.017Z,18.90
2018-12-10T17:20:50.283Z,13.43
2018-12-10T17:23:17.816Z,12.47
2018-12-10T17:25:45.509Z,16.35
2018-12-10T17:28:13.116Z,17.70
2018-12-10T17:30:40.691Z,19.57
2018-12-10T17:33:08.217Z,18.67
2018-12-10T17:35:35.929Z,22.70
2018-12-10T17:38:03.486Z,20.33
2018-12-10T17:40:31.017Z,20.07
2018-12-10T17:42:58.645Z,24.13
2018-12-10T17:45:26.209Z,23.90
2018-12-10T17:47:53.855Z,24.57
2018-12-10T17:50:21.479Z,23.23
2018-12-10T17:52:49.095Z,27.60
2018-12-10T17:55:16.628Z,26.13
2018-12-10T17:57:44.285Z,21.77
2018-12-10T18:00:11.884Z,29.53
2018-12-10T18:02:39.461Z,27.17
2018-12-10T18:05:07.083Z,19.93
2018-12-10T18:07:34.631Z,15.00
2018-12-10T18:10:02.191Z,24.33
2018-12-10T18:12:29.794Z,27.90
2018-12-10T18:14:57.481Z,25.30
2018-12-10T18:17:25.104Z,20.67
2018-12-10T18:19:52.709Z,23.90
2018-12-10T18:22:20.456Z,28.63
2018-12-10T18:24:48.054Z,30.50
2018-12-10T18:27:16.374Z,26.33
2018-12-10T18:29:45.211Z,16.57
2018-12-10T18:32:13.303Z,13.70
2018-12-10T18:34:40.844Z,16.07
2018-12-10T18:37:09.133Z,11.90
2018-12-10T18:39:38.029Z,12.30
2018-12-10T18:42:06.415Z,14.00
2018-12-10T18:44:33.941Z,14.60
2018-12-10T18:47:01.548Z,13.47
2018-12-10T18:49:29.809Z,14.70
2018-12-10T18:51:57.327Z,13.67
2018-12-10T18:54:25.303Z,18.33
2018-12-10T18:56:52.829Z,23.53
2018-12-10T18:59:20.370Z,17.43
2018-12-10T19:01:47.955Z,19.80
2018-12-10T19:04:15.498Z,25.37
2018-12-10T19:06:43.839Z,22.90
2018-12-10T19:09:11.720Z,22.63
2018-12-10T19:11:39.823Z,18.93
2018-12-10T19:14:07.386Z,21.90
2018-12-10T19:16:35.468Z,22.53
2018-12-10T19:19:03.103Z,24.73
2018-12-10T19:21:30.677Z,19.57
2018-12-10T19:23:58.593Z,19.07
2018-12-10T19:26:26.183Z,22.13
2018-12-10T19:28:53.838Z,22.60
2018-12-10T19:31:22.021Z,18.70
2018-12-10T19:33:56.171Z,22.63
2018-12-10T19:36:23.743Z,19.93
2018-12-10T19:38:51.430Z,23.93
2018-12-10T19:41:19.233Z,23.53
2018-12-10T19:43:47.401Z,20.60
2018-12-10T19:46:14.992Z,21.90
2018-12-10T19:48:43.311Z,16.57
2018-12-10T19:51:10.876Z,18.23
2018-12-10T19:53:38.412Z,23.43
2018-12-10T19:56:05.966Z,20.37
2018-12-10T19:58:33.516Z,26.30
2018-12-10T20:01:01.099Z,18.27
2018-12-10T20:03:29.225Z,17.35
2018-12-10T20:06:03.517Z,18.93
2018-12-10T20:08:31.120Z,17.37
2018-12-10T20:10:59.649Z,15.30
2018-12-10T20:13:27.945Z,14.10
2018-12-10T20:15:56.531Z,19.23
2018-12-10T20:18:24.849Z,14.80
2018-12-10T20:20:52.411Z,21.00
2018-12-10T20:23:19.972Z,22.67
2018-12-10T20:25:47.533Z,18.87
2018-12-10T20:28:15.134Z,18.77
2018-12-10T20:30:42.691Z,25.10
2018-12-10T20:33:11.624Z,19.20
2018-12-10T20:35:39.630Z,20.20
2018-12-10T20:38:07.184Z,23.60
2018-12-10T20:40:35.559Z,18.97
2018-12-10T20:43:03.168Z,22.93
2018-12-10T20:45:31.037Z,21.67
2018-12-10T20:47:58.578Z,19.83
2018-12-10T20:50:26.119Z,16.97
2018-12-10T20:52:53.662Z,16.73
2018-12-10T20:55:21.182Z,20.97
2018-12-10T20:57:48.760Z,20.90
2018-12-10T21:00:16.333Z,24.83
2018-12-10T21:02:43.900Z,21.47
2018-12-10T21:05:11.510Z,27.03
2018-12-10T21:07:39.061Z,22.90
2018-12-10T21:10:06.841Z,23.17
2018-12-10T21:12:34.389Z,22.53
2018-12-10T21:15:02.082Z,23.20
2018-12-10T21:17:29.634Z,19.27
2018-12-10T21:19:57.155Z,21.70
2018-12-10T21:22:24.679Z,20.57
2018-12-10T21:24:52.248Z,20.90
2018-12-10T21:27:19.802Z,18.97
2018-12-10T21:29:47.464Z,23.40
2018-12-10T21:32:14.997Z,25.50
2018-12-10T21:34:42.543Z,18.60
2018-12-10T21:37:10.884Z,23.07
2018-12-10T21:39:38.427Z,20.90
2018-12-10T21:42:05.947Z,18.83
2018-12-10T21:44:33.490Z,19.57
2018-12-10T21:47:01.999Z,19.03
2018-12-10T21:49:30.382Z,19.77
2018-12-10T21:51:57.904Z,22.40
2018-12-10T21:54:25.430Z,24.17
2018-12-10T21:56:52.959Z,24.70
2018-12-10T21:59:20.582Z,22.33
2018-12-10T22:01:48.683Z,21.27
2018-12-10T22:04:16.255Z,23.97
2018-12-10T22:06:43.821Z,23.30
2018-12-10T22:09:11.339Z,22.13
2018-12-10T22:11:38.933Z,17.80
2018-12-10T22:14:06.477Z,23.00
2018-12-10T22:16:34.006Z,22.10
2018-12-10T22:19:01.525Z,25.57
2018-12-10T22:21:29.899Z,26.67
2018-12-10T22:23:57.395Z,22.40
2018-12-10T22:26:24.943Z,22.47
2018-12-10T22:28:52.428Z,21.07
2018-12-10T22:31:20.004Z,26.53
2018-12-10T22:33:47.502Z,21.40
2018-12-10T22:36:15.024Z,27.83
2018-12-10T22:38:42.549Z,18.93
2018-12-10T22:41:10.085Z,24.93
2018-12-10T22:43:37.599Z,34.93
2018-12-10T22:46:05.133Z,19.43
2018-12-10T22:48:32.653Z,23.73
2018-12-10T22:51:00.201Z,26.23
2018-12-10T22:53:27.693Z,22.57
2018-12-10T22:55:55.219Z,24.47
2018-12-10T22:58:22.746Z,24.43
2018-12-10T23:00:50.867Z,19.47
2018-12-10T23:03:19.382Z,15.90
2018-12-10T23:05:46.903Z,24.53
2018-12-10T23:08:14.464Z,19.17
2018-12-10T23:10:42.005Z,19.90
2018-12-10T23:13:09.497Z,21.70
2018-12-10T23:15:36.995Z,22.53
2018-12-10T23:18:04.634Z,21.03
2018-12-10T23:20:32.167Z,24.37
2018-12-10T23:22:59.839Z,21.00
2018-12-10T23:25:27.417Z,27.13
2018-12-10T23:27:55.091Z,30.90
2018-12-10T23:30:22.599Z,26.10
2018-12-10T23:35:28.763Z,26.33
2018-12-10T23:37:56.330Z,24.90
2018-12-10T23:40:23.896Z,28.37
2018-12-10T23:42:57.087Z,27.23
2018-12-10T23:45:24.673Z,22.80
2018-12-10T23:47:52.179Z,26.15
2018-12-10T23:50:20.165Z,25.97
2018-12-10T23:52:47.809Z,29.20
2018-12-10T23:55:15.474Z,28.97
2018-12-10T23:57:42.966Z,22.50
